Time;durP1;ratioP1;P1;durP2;ratioP2;P2;SDS_P1;SDS_P2;PMS_P1;PMS_P2;Temp;Humidity;BMP_temperature;BMP_pressure;BME280_temperature;BME280_humidity;BME280_pressure;Samples;Min_cycle;Max_cycle;Signal;HPM_P1;HPM_P2
2021/04/20 00:00:27;;;;;;;;;;;10.30;99.90;;;;;;5093600;28;19915;-74
2021/04/20 00:02:53;;;;;;;;;;;10.30;99.90;;;;;;5093174;28;19908;-74
2021/04/20 00:05:19;;;;;;;;;;;10.30;99.90;;;;;;5093519;28;19912;-73
2021/04/20 00:07:44;;;;;;;;;;;10.20;99.90;;;;;;5093997;28;19947;-73
2021/04/20 00:10:11;;;;;;;;;;;10.20;99.90;;;;;;5092375;28;19916;-73
2021/04/20 00:12:36;;;;;;;;;;;10.20;99.90;;;;;;5093542;28;19908;-73
2021/04/20 00:15:09;;;;;;;;;;;10.10;99.90;;;;;;5093281;28;19908;-74
2021/04/20 00:17:35;;;;;;;;;;;10.20;99.90;;;;;;5092828;28;20264;-73
2021/04/20 00:20:00;;;;;;;;;;;10.20;99.90;;;;;;5092586;28;19995;-73
2021/04/20 00:22:26;;;;;;;;;;;10.10;99.90;;;;;;5092984;28;19922;-73
2021/04/20 00:24:51;;;;;;;;;;;10.10;99.90;;;;;;5093055;28;19943;-72
2021/04/20 00:27:17;;;;;;;;;;;10.00;99.90;;;;;;5093507;28;19908;-72
2021/04/20 00:29:42;;;;;;;;;;;10.00;99.90;;;;;;5093059;28;20318;-72
2021/04/20 00:32:08;;;;;;;;;;;9.90;99.90;;;;;;5092200;28;19937;-72
2021/04/20 00:34:33;;;;;;;;;;;9.90;99.90;;;;;;5091466;28;19915;-71
2021/04/20 00:36:59;;;;;;;;;;;9.90;99.90;;;;;;5093107;28;19972;-71
2021/04/20 00:39:24;;;;;;;;;;;9.90;99.90;;;;;;5093327;28;19907;-72
2021/04/20 00:42:02;;;;;;;;;;;9.90;99.90;;;;;;5092977;28;19908;-72
2021/04/20 00:44:28;;;;;;;;;;;9.90;99.90;;;;;;5091126;28;19915;-73
2021/04/20 00:46:53;;;;;;;;;;;9.90;99.90;;;;;;5091912;28;19908;-72
2021/04/20 00:49:19;;;;;;;;;;;9.90;99.90;;;;;;5093488;28;19939;-72
2021/04/20 00:51:44;;;;;;;;;;;9.90;99.90;;;;;;5093357;28;19912;-72
2021/04/20 00:54:10;;;;;;;;;;;10.00;99.90;;;;;;5092985;28;19923;-73
2021/04/20 00:56:35;;;;;;;;;;;10.00;99.90;;;;;;5093474;28;20311;-71
2021/04/20 00:59:01;;;;;;;;;;;10.10;99.90;;;;;;5094426;28;20268;-71
2021/04/20 01:01:26;;;;;;;;;;;10.10;99.90;;;;;;5096563;28;19908;-71
2021/04/20 01:03:52;;;;;;;;;;;10.10;99.90;;;;;;5097064;28;19908;-72
2021/04/20 01:06:17;;;;;;;;;;;10.10;99.90;;;;;;5097592;28;19912;-71
2021/04/20 01:08:43;;;;;;;;;;;10.20;99.90;;;;;;5096151;28;19908;-72
2021/04/20 01:11:09;;;;;;;;;;;10.20;99.90;;;;;;5097038;28;19915;-73
2021/04/20 01:13:34;;;;;;;;;;;10.20;99.90;;;;;;5097039;28;19912;-73
2021/04/20 01:16:00;;;;;;;;;;;10.20;99.90;;;;;;5096048;28;20059;-73
2021/04/20 01:18:27;;;;;;;;;;;10.20;99.90;;;;;;5097678;28;20389;-72
2021/04/20 01:20:54;;;;;;;;;;;10.30;99.90;;;;;;5097217;28;19908;-73
2021/04/20 01:23:29;;;;;;;;;;;10.40;99.90;;;;;;5096929;28;19998;-72
2021/04/20 01:25:55;;;;;;;;;;;10.30;99.90;;;;;;5097015;28;19916;-73
2021/04/20 01:28:21;;;;;;;;;;;10.30;99.90;;;;;;5098828;28;19977;-73
2021/04/20 01:30:47;;;;;;;;;;;10.30;99.90;;;;;;5099375;28;19908;-74
2021/04/20 01:33:12;;;;;;;;;;;10.30;99.90;;;;;;5097877;28;19907;-72
2021/04/20 01:35:38;;;;;;;;;;;10.30;99.90;;;;;;5099301;28;19951;-73
2021/04/20 01:38:07;;;;;;;;;;;10.20;99.90;;;;;;5114142;28;19908;-73
2021/04/20 01:40:33;;;;;;;;;;;10.30;99.90;;;;;;5115249;28;19939;-72
2021/04/20 01:42:59;;;;;;;;;;;10.30;99.90;;;;;;5112680;28;19908;-73
2021/04/20 01:45:26;;;;;;;;;;;10.30;99.90;;;;;;5112544;28;19908;-73
2021/04/20 01:47:51;;;;;;;;;;;10.20;99.90;;;;;;5111880;28;19962;-74
2021/04/20 01:50:17;;;;;;;;;;;10.20;99.90;;;;;;5118884;28;19915;-74
2021/04/20 01:52:46;;;;;;;;;;;10.20;99.90;;;;;;5119057;28;19920;-72
2021/04/20 01:55:12;;;;;;;;;;;10.10;99.90;;;;;;5119213;28;20154;-72
2021/04/20 01:57:38;;;;;;;;;;;10.20;99.90;;;;;;5118329;28;19942;-74
2021/04/20 02:00:06;;;;;;;;;;;10.20;99.90;;;;;;5117542;28;19912;-71
2021/04/20 02:02:32;;;;;;;;;;;10.10;99.90;;;;;;5109038;28;19908;-72
2021/04/20 02:04:58;;;;;;;;;;;10.00;99.90;;;;;;5100169;28;20322;-72
2021/04/20 02:07:23;;;;;;;;;;;10.00;99.90;;;;;;5099567;28;19943;-72
2021/04/20 02:09:49;;;;;;;;;;;10.00;99.90;;;;;;5097934;28;19915;-76
2021/04/20 02:12:14;;;;;;;;;;;9.90;99.90;;;;;;5097365;28;19915;-73
2021/04/20 02:14:40;;;;;;;;;;;9.90;99.90;;;;;;5096838;28;19912;-72
2021/04/20 02:17:05;;;;;;;;;;;9.90;99.90;;;;;;5096653;28;19916;-72
2021/04/20 02:19:31;;;;;;;;;;;9.80;99.90;;;;;;5096246;28;19973;-74
2021/04/20 02:21:57;;;;;;;;;;;9.80;99.90;;;;;;5096469;28;19908;-73
2021/04/20 02:24:22;;;;;;;;;;;9.80;99.90;;;;;;5094706;28;19916;-73
2021/04/20 02:26:48;;;;;;;;;;;9.80;99.90;;;;;;5095307;28;19915;-75
2021/04/20 02:29:14;;;;;;;;;;;9.70;99.90;;;;;;5095676;28;19911;-73
2021/04/20 02:31:41;;;;;;;;;;;9.70;99.90;;;;;;5095640;28;19907;-73
2021/04/20 02:34:07;;;;;;;;;;;9.60;99.90;;;;;;5094688;28;19915;-75
2021/04/20 02:36:36;;;;;;;;;;;9.60;99.90;;;;;;5093949;28;20379;-73
2021/04/20 02:39:03;;;;;;;;;;;9.50;99.90;;;;;;5095253;28;19908;-74
2021/04/20 02:41:29;;;;;;;;;;;9.50;99.90;;;;;;5094482;28;19951;-74
2021/04/20 02:43:54;;;;;;;;;;;9.50;99.90;;;;;;5095525;28;19907;-74
2021/04/20 02:46:20;;;;;;;;;;;9.50;99.90;;;;;;5095812;28;19919;-75
2021/04/20 02:48:46;;;;;;;;;;;9.50;99.90;;;;;;5093838;28;19915;-74
2021/04/20 02:51:12;;;;;;;;;;;9.40;99.90;;;;;;5095513;28;19931;-74
2021/04/20 02:53:38;;;;;;;;;;;9.40;99.90;;;;;;5094165;28;19976;-74
2021/04/20 02:56:04;;;;;;;;;;;9.40;99.90;;;;;;5094560;28;19998;-74
2021/04/20 02:58:30;;;;;;;;;;;9.30;99.90;;;;;;5094501;28;20007;-74
2021/04/20 03:00:58;;;;;;;;;;;9.30;99.90;;;;;;5094392;28;19927;-75
2021/04/20 03:03:24;;;;;;;;;;;9.30;99.90;;;;;;5095242;28;20379;-74
2021/04/20 03:05:49;;;;;;;;;;;9.20;99.90;;;;;;5094634;28;19908;-75
2021/04/20 03:08:15;;;;;;;;;;;9.20;99.90;;;;;;5094290;28;19918;-74
2021/04/20 03:10:42;;;;;;;;;;;9.10;99.90;;;;;;5093646;28;19931;-75
2021/04/20 03:13:08;;;;;;;;;;;9.00;99.90;;;;;;5092532;28;19962;-74
2021/04/20 03:15:34;;;;;;;;;;;9.00;99.90;;;;;;5093380;28;19912;-74
2021/04/20 03:18:00;;;;;;;;;;;8.90;99.90;;;;;;5094798;28;19916;-74
2021/04/20 03:20:25;;;;;;;;;;;8.90;99.90;;;;;;5093586;28;19957;-75
2021/04/20 03:22:51;;;;;;;;;;;8.90;99.90;;;;;;5093480;28;19951;-74
2021/04/20 03:25:17;;;;;;;;;;;8.90;99.90;;;;;;5094741;28;19953;-74
2021/04/20 03:27:44;;;;;;;;;;;8.90;99.90;;;;;;5093805;28;20272;-75
2021/04/20 03:30:11;;;;;;;;;;;8.90;99.90;;;;;;5094602;28;19908;-74
2021/04/20 03:32:37;;;;;;;;;;;8.80;99.90;;;;;;5094076;28;20287;-74
2021/04/20 03:35:08;;;;;;;;;;;8.80;99.90;;;;;;5094219;28;19908;-74
2021/04/20 03:37:37;;;;;;;;;;;8.70;99.90;;;;;;5093905;28;19947;-75
2021/04/20 03:40:04;;;;;;;;;;;8.60;99.90;;;;;;5094233;28;20283;-74
2021/04/20 03:42:33;;;;;;;;;;;8.60;99.90;;;;;;5092798;28;19908;-75
2021/04/20 03:45:06;;;;;;;;;;;8.60;99.90;;;;;;5093472;28;19908;-74
2021/04/20 03:48:10;;;;;;;;;;;8.50;99.90;;;;;;5093015;28;19912;-74
2021/04/20 03:50:37;;;;;;;;;;;8.60;99.90;;;;;;5030988;28;20424;-74
2021/04/20 03:53:05;;;;;;;;;;;8.60;99.90;;;;;;5031118;28;19917;-75
2021/04/20 03:55:32;;;;;;;;;;;8.60;99.90;;;;;;5061617;28;19915;-74
2021/04/20 03:57:59;;;;;;;;;;;8.60;99.90;;;;;;5093847;28;19908;-74
2021/04/20 04:00:25;;;;;;;;;;;8.60;99.90;;;;;;5092723;28;19908;-74
2021/04/20 04:02:51;;;;;;;;;;;8.60;99.90;;;;;;5093789;28;19954;-74
2021/04/20 04:05:19;;;;;;;;;;;8.50;99.90;;;;;;5093820;28;20007;-74
2021/04/20 04:07:46;;;;;;;;;;;8.50;99.90;;;;;;5090441;28;20390;-75
2021/04/20 04:10:12;;;;;;;;;;;8.40;99.90;;;;;;5093330;28;19915;-75
2021/04/20 04:12:39;;;;;;;;;;;8.40;99.90;;;;;;5092889;28;19914;-75
2021/04/20 04:15:05;;;;;;;;;;;8.30;99.90;;;;;;5093165;28;19908;-75
2021/04/20 04:17:32;;;;;;;;;;;8.30;99.90;;;;;;5093785;28;19912;-74
2021/04/20 04:19:58;;;;;;;;;;;8.30;99.90;;;;;;5094351;28;19999;-75
2021/04/20 04:22:28;;;;;;;;;;;8.30;99.90;;;;;;5095292;28;20340;-75
2021/04/20 04:24:54;;;;;;;;;;;8.30;99.90;;;;;;5094932;28;19947;-74
2021/04/20 04:27:25;;;;;;;;;;;8.30;99.90;;;;;;5095814;28;19919;-74
2021/04/20 04:29:52;;;;;;;;;;;8.30;99.90;;;;;;5112005;28;19912;-73
2021/04/20 04:32:18;;;;;;;;;;;8.30;99.90;;;;;;5113711;28;20006;-74
2021/04/20 04:34:45;;;;;;;;;;;8.30;99.90;;;;;;5111566;28;19970;-74
2021/04/20 04:37:11;;;;;;;;;;;8.20;99.90;;;;;;5113500;28;19954;-73
2021/04/20 04:39:40;;;;;;;;;;;8.20;99.90;;;;;;5109561;28;19915;-73
2021/04/20 04:42:05;;;;;;;;;;;8.20;99.90;;;;;;5117082;28;19932;-73
2021/04/20 04:44:31;;;;;;;;;;;8.20;99.90;;;;;;5117275;28;19918;-74
2021/04/20 04:46:56;;;;;;;;;;;8.20;99.90;;;;;;5116366;28;19900;-74
2021/04/20 04:49:22;;;;;;;;;;;8.20;99.90;;;;;;5116651;28;19912;-74
2021/04/20 04:51:49;;;;;;;;;;;8.20;99.90;;;;;;5115965;28;19948;-72
2021/04/20 04:54:16;;;;;;;;;;;8.20;99.90;;;;;;5097295;28;20002;-73
2021/04/20 04:56:42;;;;;;;;;;;8.10;99.90;;;;;;5080922;28;20452;-74
2021/04/20 04:59:14;;;;;;;;;;;8.20;99.90;;;;;;5092403;28;19916;-75
2021/04/20 05:01:40;;;;;;;;;;;8.20;99.90;;;;;;5092194;28;20059;-74
2021/04/20 05:04:07;;;;;;;;;;;8.20;99.90;;;;;;5093570;28;20413;-74
2021/04/20 05:06:33;;;;;;;;;;;8.20;99.90;;;;;;5093081;28;20280;-75
2021/04/20 05:08:59;;;;;;;;;;;8.30;99.90;;;;;;5092808;28;19907;-74
2021/04/20 05:11:24;;;;;;;;;;;8.20;99.90;;;;;;5092703;28;19961;-74
2021/04/20 05:13:50;;;;;;;;;;;8.30;99.90;;;;;;5092771;28;19916;-75
2021/04/20 05:16:17;;;;;;;;;;;8.30;99.90;;;;;;5091323;28;19912;-75
2021/04/20 05:18:43;;;;;;;;;;;8.30;99.90;;;;;;5091145;28;19908;-75
2021/04/20 05:21:09;;;;;;;;;;;8.30;99.90;;;;;;5091763;28;19915;-75
2021/04/20 05:23:34;;;;;;;;;;;8.30;99.90;;;;;;5092312;28;20318;-76
2021/04/20 05:26:00;;;;;;;;;;;8.40;99.90;;;;;;5091564;28;19912;-75
2021/04/20 05:28:25;;;;;;;;;;;8.40;99.90;;;;;;5092378;28;19996;-74
2021/04/20 05:30:52;;;;;;;;;;;8.60;99.90;;;;;;5091410;28;20007;-75
2021/04/20 05:33:18;;;;;;;;;;;8.60;99.90;;;;;;5092185;28;19915;-75
2021/04/20 05:35:43;;;;;;;;;;;8.60;99.90;;;;;;5093082;28;20283;-76
2021/04/20 05:38:09;;;;;;;;;;;8.60;99.90;;;;;;5091553;28;19961;-75
2021/04/20 05:40:39;;;;;;;;;;;8.70;99.90;;;;;;5091342;28;19922;-76
2021/04/20 05:43:06;;;;;;;;;;;8.80;99.90;;;;;;5092415;28;19954;-75
2021/04/20 05:45:32;;;;;;;;;;;8.90;99.90;;;;;;5093665;28;20295;-75
2021/04/20 05:47:58;;;;;;;;;;;9.00;99.90;;;;;;5094964;28;19908;-75
2021/04/20 05:50:25;;;;;;;;;;;9.00;99.90;;;;;;5095144;28;19908;-75
2021/04/20 05:52:51;;;;;;;;;;;9.10;99.90;;;;;;5095888;28;19908;-75
2021/04/20 05:55:16;;;;;;;;;;;9.10;99.90;;;;;;5095099;28;19918;-75
2021/04/20 05:57:46;;;;;;;;;;;9.20;99.90;;;;;;5095078;28;19930;-76
2021/04/20 06:00:12;;;;;;;;;;;9.30;99.90;;;;;;5095785;28;19943;-75
2021/04/20 06:02:38;;;;;;;;;;;9.40;99.90;;;;;;5095824;28;19908;-75
2021/04/20 06:05:09;;;;;;;;;;;9.50;99.90;;;;;;5094929;28;19931;-75
2021/04/20 06:07:35;;;;;;;;;;;9.60;99.90;;;;;;5094977;28;19908;-75
2021/04/20 06:10:04;;;;;;;;;;;9.70;99.90;;;;;;5094658;28;20280;-75
2021/04/20 06:12:29;;;;;;;;;;;9.80;99.90;;;;;;5096204;28;19954;-75
2021/04/20 06:14:55;;;;;;;;;;;9.90;99.90;;;;;;5096601;28;19904;-75
2021/04/20 06:17:20;;;;;;;;;;;9.90;99.90;;;;;;5094837;28;20002;-76
2021/04/20 06:19:46;;;;;;;;;;;10.00;99.90;;;;;;5095933;28;19908;-75
2021/04/20 06:22:13;;;;;;;;;;;10.10;99.90;;;;;;5094479;28;19953;-75
2021/04/20 06:24:39;;;;;;;;;;;10.10;99.90;;;;;;5088885;28;20283;-75
2021/04/20 06:27:05;;;;;;;;;;;10.20;99.90;;;;;;5095512;28;19908;-75
2021/04/20 06:29:30;;;;;;;;;;;10.40;99.90;;;;;;5094008;28;19912;-75
2021/04/20 06:31:57;;;;;;;;;;;10.60;99.90;;;;;;5095098;28;20007;-74
2021/04/20 06:34:23;;;;;;;;;;;10.80;99.90;;;;;;5095397;28;19915;-75
2021/04/20 06:36:51;;;;;;;;;;;10.90;99.90;;;;;;5095509;28;19912;-75
2021/04/20 06:39:16;;;;;;;;;;;11.00;99.90;;;;;;5093564;28;20415;-75
2021/04/20 06:41:43;;;;;;;;;;;11.00;99.90;;;;;;5095497;28;19995;-75
2021/04/20 06:44:19;;;;;;;;;;;11.00;99.90;;;;;;5095558;28;19915;-75
2021/04/20 06:46:52;;;;;;;;;;;11.20;99.90;;;;;;5095584;28;19915;-75
2021/04/20 06:49:19;;;;;;;;;;;11.30;99.90;;;;;;5094950;28;19911;-75
2021/04/20 06:51:49;;;;;;;;;;;11.50;99.90;;;;;;5076906;28;20047;-75
2021/04/20 06:54:33;;;;;;;;;;;11.60;99.90;;;;;;5085848;28;20364;-75
2021/04/20 06:57:08;;;;;;;;;;;11.60;99.90;;;;;;5095560;28;20057;-76
2021/04/20 06:59:45;;;;;;;;;;;11.80;99.90;;;;;;5085760;28;19908;-75
2021/04/20 07:02:30;;;;;;;;;;;12.00;99.90;;;;;;5093912;28;19908;-75
2021/04/20 07:04:57;;;;;;;;;;;12.20;99.90;;;;;;5113119;28;19979;-75
2021/04/20 07:07:31;;;;;;;;;;;12.20;99.90;;;;;;5117615;28;20031;-75
2021/04/20 07:10:00;;;;;;;;;;;12.30;99.90;;;;;;5112352;28;19912;-75
2021/04/20 07:12:26;;;;;;;;;;;12.30;99.90;;;;;;5116615;28;19900;-75
2021/04/20 07:14:54;;;;;;;;;;;12.50;99.90;;;;;;5115745;28;19900;-76
2021/04/20 07:17:24;;;;;;;;;;;12.60;99.90;;;;;;5113749;28;19924;-74
2021/04/20 07:20:08;;;;;;;;;;;12.80;99.90;;;;;;5097266;28;19933;-75
2021/04/20 07:22:37;;;;;;;;;;;12.90;99.90;;;;;;5093139;28;19908;-75
2021/04/20 07:25:06;;;;;;;;;;;13.00;99.90;;;;;;5095223;28;19908;-76
2021/04/20 07:27:35;;;;;;;;;;;13.20;99.90;;;;;;5093564;28;19931;-74
2021/04/20 07:30:12;;;;;;;;;;;13.40;99.90;;;;;;5092667;28;19915;-74
2021/04/20 07:32:51;;;;;;;;;;;13.40;99.90;;;;;;5094107;28;19908;-74
2021/04/20 07:35:21;;;;;;;;;;;13.60;99.90;;;;;;5090191;28;20299;-75
2021/04/20 07:37:53;;;;;;;;;;;13.80;99.90;;;;;;5086746;28;19909;-75
2021/04/20 07:40:32;;;;;;;;;;;13.80;99.90;;;;;;5106380;28;19908;-75
2021/04/20 07:42:57;;;;;;;;;;;13.90;99.90;;;;;;5090362;28;19908;-75
2021/04/20 07:45:23;;;;;;;;;;;14.00;99.90;;;;;;5088734;28;19908;-74
2021/04/20 07:47:52;;;;;;;;;;;14.00;99.90;;;;;;5091927;28;19955;-75
2021/04/20 07:50:33;;;;;;;;;;;14.10;99.90;;;;;;5092452;28;19908;-75
2021/04/20 07:53:18;;;;;;;;;;;14.30;99.90;;;;;;5092302;28;19919;-74
2021/04/20 07:55:51;;;;;;;;;;;14.50;99.90;;;;;;5092265;28;19923;-75
2021/04/20 07:58:20;;;;;;;;;;;14.70;99.90;;;;;;5090959;28;19907;-75
2021/04/20 08:00:51;;;;;;;;;;;14.80;99.90;;;;;;5086683;28;20451;-75
2021/04/20 08:03:20;;;;;;;;;;;14.80;99.90;;;;;;5088773;28;19922;-74
2021/04/20 08:05:47;;;;;;;;;;;14.80;99.90;;;;;;5090218;28;20318;-71
2021/04/20 08:08:16;;;;;;;;;;;14.70;99.90;;;;;;5091464;28;19955;-69
2021/04/20 08:10:50;;;;;;;;;;;14.80;99.90;;;;;;5091219;28;19908;-77
2021/04/20 08:13:17;;;;;;;;;;;15.00;99.90;;;;;;5090496;28;19915;-78
2021/04/20 08:15:53;;;;;;;;;;;15.20;99.90;;;;;;5092781;28;19912;-75
2021/04/20 08:18:25;;;;;;;;;;;15.00;99.90;;;;;;5092082;28;20471;-74
2021/04/20 08:20:51;;;;;;;;;;;15.20;99.90;;;;;;5092401;28;19919;-73
2021/04/20 08:23:17;;;;;;;;;;;15.30;99.90;;;;;;5092195;28;20382;-74
2021/04/20 08:25:48;;;;;;;;;;;15.40;99.90;;;;;;5093056;28;19915;-73
2021/04/20 08:28:24;;;;;;;;;;;15.30;99.90;;;;;;5092856;28;19908;-72
2021/04/20 08:31:03;;;;;;;;;;;15.50;99.90;;;;;;5093173;28;19919;-74
2021/04/20 08:33:32;;;;;;;;;;;15.70;99.90;;;;;;5081966;28;20352;-73
2021/04/20 08:35:58;;;;;;;;;;;15.90;99.90;;;;;;5090917;28;19989;-75
2021/04/20 08:38:27;;;;;;;;;;;15.80;99.90;;;;;;5091613;28;19908;-74
2021/04/20 08:41:02;;;;;;;;;;;15.90;99.90;;;;;;5085787;28;19955;-76
2021/04/20 08:43:46;;;;;;;;;;;16.00;99.90;;;;;;5089390;28;19912;-76
2021/04/20 08:46:17;;;;;;;;;;;16.20;99.90;;;;;;5086550;28;19912;-76
2021/04/20 08:48:50;;;;;;;;;;;16.20;99.90;;;;;;5090867;28;19915;-75
2021/04/20 08:51:48;;;;;;;;;;;16.00;99.90;;;;;;5087697;28;19908;-74
2021/04/20 08:54:32;;;;;;;;;;;15.90;99.90;;;;;;5068980;28;19912;-75
2021/04/20 08:57:02;;;;;;;;;;;16.20;99.90;;;;;;5087379;28;19967;-75
2021/04/20 08:59:42;;;;;;;;;;;16.20;99.90;;;;;;5091946;28;20007;-75
2021/04/20 09:02:32;;;;;;;;;;;16.10;99.90;;;;;;5092847;28;19915;-75
2021/04/20 09:05:03;;;;;;;;;;;16.30;99.90;;;;;;5090246;28;20306;-74
2021/04/20 09:07:32;;;;;;;;;;;16.70;99.90;;;;;;5091741;28;19914;-75
2021/04/20 09:10:04;;;;;;;;;;;17.00;99.90;;;;;;5091226;28;19912;-75
2021/04/20 09:12:30;;;;;;;;;;;17.30;99.90;;;;;;5089053;28;19912;-75
2021/04/20 09:14:56;;;;;;;;;;;17.70;99.70;;;;;;5087471;28;19908;-75
2021/04/20 09:17:24;;;;;;;;;;;17.90;99.90;;;;;;5088094;28;20360;-74
2021/04/20 09:19:54;;;;;;;;;;;18.20;99.00;;;;;;5092016;28;19912;-75
2021/04/20 09:22:19;;;;;;;;;;;18.50;97.90;;;;;;5092819;28;19908;-75
2021/04/20 09:24:52;;;;;;;;;;;18.60;97.50;;;;;;5096949;28;19908;-75
2021/04/20 09:27:23;;;;;;;;;;;18.90;96.20;;;;;;5096044;28;19908;-74
2021/04/20 09:29:56;;;;;;;;;;;19.20;96.50;;;;;;5095388;28;19998;-74
2021/04/20 09:32:24;;;;;;;;;;;19.00;95.40;;;;;;5095922;28;19908;-74
2021/04/20 09:34:51;;;;;;;;;;;19.20;95.30;;;;;;5096779;28;20056;-76
2021/04/20 09:37:20;;;;;;;;;;;19.30;95.80;;;;;;5096182;28;19912;-75
2021/04/20 09:39:48;;;;;;;;;;;19.30;95.10;;;;;;5096447;28;20013;-75
2021/04/20 09:42:16;;;;;;;;;;;19.40;94.80;;;;;;5092542;28;19912;-75
2021/04/20 09:44:41;;;;;;;;;;;19.40;94.20;;;;;;5096612;28;20382;-76
2021/04/20 09:47:25;;;;;;;;;;;19.50;94.60;;;;;;5092052;28;19908;-76
2021/04/20 09:50:03;;;;;;;;;;;19.70;94.30;;;;;;5093982;28;19916;-75
2021/04/20 09:52:47;;;;;;;;;;;20.10;93.40;;;;;;5084540;28;19965;-74
2021/04/20 09:55:18;;;;;;;;;;;20.30;93.20;;;;;;5091958;28;19919;-74
2021/04/20 09:57:45;;;;;;;;;;;20.70;91.40;;;;;;5094633;28;19923;-73
2021/04/20 10:00:12;;;;;;;;;;;20.90;90.50;;;;;;5091747;28;20026;-73
2021/04/20 10:02:50;;;;;;;;;;;21.10;90.60;;;;;;5087147;28;19908;-74
2021/04/20 10:05:31;;;;;;;;;;;21.10;90.10;;;;;;5084500;28;20045;-77
2021/04/20 10:08:16;;;;;;;;;;;20.60;90.00;;;;;;5081831;28;19978;-76
2021/04/20 10:10:44;;;;;;;;;;;20.80;86.90;;;;;;5095324;28;20010;-73
2021/04/20 10:13:27;;;;;;;;;;;20.70;86.40;;;;;;5086056;28;19913;-77
2021/04/20 10:16:05;;;;;;;;;;;20.70;88.50;;;;;;5086847;28;20023;-76
2021/04/20 10:18:41;;;;;;;;;;;20.80;89.40;;;;;;5109200;28;19919;-77
2021/04/20 10:21:09;;;;;;;;;;;21.00;87.30;;;;;;5093091;28;20390;-75
2021/04/20 10:23:43;;;;;;;;;;;21.20;86.30;;;;;;5094472;28;19908;-76
2021/04/20 10:26:14;;;;;;;;;;;21.60;84.10;;;;;;5096041;28;19994;-77
2021/04/20 10:28:44;;;;;;;;;;;22.00;83.40;;;;;;5093064;28;19912;-76
2021/04/20 10:31:30;;;;;;;;;;;21.90;80.20;;;;;;5090440;28;20456;-77
2021/04/20 10:33:56;;;;;;;;;;;21.60;79.50;;;;;;5107726;28;20314;-79
2021/04/20 10:36:23;;;;;;;;;;;21.40;81.40;;;;;;5094168;28;20014;-77
2021/04/20 10:38:51;;;;;;;;;;;21.50;82.00;;;;;;5093564;28;19907;-78
2021/04/20 10:41:22;;;;;;;;;;;21.80;79.30;;;;;;5094581;28;20361;-79
2021/04/20 10:43:48;;;;;;;;;;;21.90;80.10;;;;;;5094747;28;19908;-74
2021/04/20 10:46:19;;;;;;;;;;;21.50;78.40;;;;;;5091166;28;19993;-77
2021/04/20 10:48:45;;;;;;;;;;;21.10;78.20;;;;;;5092055;28;19961;-74
2021/04/20 10:51:11;;;;;;;;;;;20.80;79.60;;;;;;5096150;28;19999;-75
2021/04/20 10:53:38;;;;;;;;;;;20.50;79.30;;;;;;5095585;28;19967;-74
2021/04/20 10:56:14;;;;;;;;;;;20.20;81.40;;;;;;5092184;28;19916;-73
2021/04/20 10:58:48;;;;;;;;;;;20.20;81.90;;;;;;5094204;28;19908;-74
2021/04/20 11:01:21;;;;;;;;;;;20.20;80.60;;;;;;5093894;28;20010;-75
2021/04/20 11:03:47;;;;;;;;;;;20.10;80.10;;;;;;5095995;28;19908;-75
2021/04/20 11:06:15;;;;;;;;;;;19.90;82.00;;;;;;5096138;28;20365;-74
2021/04/20 11:08:48;;;;;;;;;;;19.60;81.70;;;;;;5096830;28;20367;-72
2021/04/20 11:11:20;;;;;;;;;;;19.40;82.90;;;;;;5089576;28;19952;-71
2021/04/20 11:13:47;;;;;;;;;;;19.20;84.40;;;;;;5096464;28;19908;-74
2021/04/20 11:16:14;;;;;;;;;;;19.20;85.20;;;;;;5094152;28;19915;-71
2021/04/20 11:18:43;;;;;;;;;;;19.20;84.20;;;;;;5095831;28;19973;-74
2021/04/20 11:21:12;;;;;;;;;;;19.30;84.60;;;;;;5103153;28;19908;-74
2021/04/20 11:23:45;;;;;;;;;;;19.20;86.00;;;;;;5114800;28;19923;-70
2021/04/20 11:26:12;;;;;;;;;;;19.00;86.20;;;;;;5114076;28;19904;-71
2021/04/20 11:28:52;;;;;;;;;;;18.70;86.40;;;;;;5109125;28;19908;-74
2021/04/20 11:31:26;;;;;;;;;;;18.60;89.40;;;;;;5105012;28;19979;-73
2021/04/20 11:34:04;;;;;;;;;;;18.60;88.40;;;;;;5106749;28;19908;-73
2021/04/20 11:36:39;;;;;;;;;;;18.70;87.00;;;;;;5116385;28;19920;-78
2021/04/20 11:39:06;;;;;;;;;;;18.70;90.00;;;;;;5117151;28;19903;-76
2021/04/20 11:41:38;;;;;;;;;;;18.60;88.70;;;;;;5118704;28;20007;-78
2021/04/20 11:44:05;;;;;;;;;;;18.70;89.50;;;;;;5116831;28;19896;-78
2021/04/20 11:46:31;;;;;;;;;;;18.70;88.70;;;;;;5112959;28;19916;-77
2021/04/20 11:49:08;;;;;;;;;;;18.10;90.60;;;;;;5117146;28;19926;-72
2021/04/20 11:51:36;;;;;;;;;;;17.70;91.10;;;;;;5118201;28;19908;-75
2021/04/20 11:54:03;;;;;;;;;;;17.80;91.30;;;;;;5116096;28;19956;-75
2021/04/20 11:56:34;;;;;;;;;;;17.80;91.00;;;;;;5112036;28;19903;-75
2021/04/20 11:59:00;;;;;;;;;;;17.90;90.80;;;;;;5111317;28;19963;-71
2021/04/20 12:01:26;;;;;;;;;;;18.10;90.10;;;;;;5104891;28;19915;-69
2021/04/20 12:03:55;;;;;;;;;;;18.30;91.00;;;;;;5103278;28;20272;-69
2021/04/20 12:06:21;;;;;;;;;;;18.40;89.70;;;;;;5105070;28;19916;-75
2021/04/20 12:08:52;;;;;;;;;;;18.50;90.00;;;;;;5111953;28;19919;-75
2021/04/20 12:11:18;;;;;;;;;;;18.50;89.70;;;;;;5102094;28;19908;-74
2021/04/20 12:13:47;;;;;;;;;;;18.60;88.30;;;;;;5092118;28;19968;-75
2021/04/20 12:16:13;;;;;;;;;;;18.70;88.90;;;;;;5095729;28;20010;-75
2021/04/20 12:18:43;;;;;;;;;;;18.80;88.20;;;;;;5092886;28;20352;-75
2021/04/20 12:21:09;;;;;;;;;;;18.80;90.30;;;;;;5093148;28;19907;-73
2021/04/20 12:23:36;;;;;;;;;;;18.80;89.50;;;;;;5079676;28;19908;-73
2021/04/20 12:26:02;;;;;;;;;;;18.70;89.40;;;;;;5095613;28;19908;-74
2021/04/20 12:28:28;;;;;;;;;;;18.80;89.70;;;;;;5095568;28;19915;-72
2021/04/20 12:30:54;;;;;;;;;;;18.80;89.10;;;;;;5083421;28;19908;-71
2021/04/20 12:33:29;;;;;;;;;;;18.80;89.30;;;;;;5075061;28;19934;-73
2021/04/20 12:35:56;;;;;;;;;;;19.10;90.00;;;;;;5073318;28;19995;-72
2021/04/20 12:38:22;;;;;;;;;;;19.10;90.20;;;;;;5089385;28;19977;-74
2021/04/20 12:40:52;;;;;;;;;;;18.90;90.50;;;;;;5092912;28;20333;-73
2021/04/20 12:43:18;;;;;;;;;;;18.80;91.00;;;;;;5092362;28;19908;-74
2021/04/20 12:45:44;;;;;;;;;;;18.60;91.00;;;;;;5093552;28;19908;-73
2021/04/20 12:48:10;;;;;;;;;;;18.50;90.80;;;;;;5093493;28;20273;-72
2021/04/20 12:50:46;;;;;;;;;;;18.60;90.60;;;;;;5092739;28;20006;-73
2021/04/20 12:53:12;;;;;;;;;;;18.30;91.20;;;;;;5085967;28;19908;-73
2021/04/20 12:55:40;;;;;;;;;;;18.10;90.90;;;;;;5095143;28;19916;-74
2021/04/20 12:58:07;;;;;;;;;;;18.20;91.60;;;;;;5093473;28;19908;-73
2021/04/20 13:00:33;;;;;;;;;;;18.20;91.30;;;;;;5097001;28;19908;-72
2021/04/20 13:03:00;;;;;;;;;;;18.30;90.90;;;;;;5094299;28;19908;-74
2021/04/20 13:05:27;;;;;;;;;;;18.40;90.70;;;;;;5085457;28;19908;-75
2021/04/20 13:07:53;;;;;;;;;;;18.40;90.50;;;;;;5089090;28;19943;-76
2021/04/20 13:10:20;;;;;;;;;;;18.40;90.60;;;;;;5097062;28;19908;-67
2021/04/20 13:12:52;;;;;;;;;;;18.40;91.80;;;;;;5096419;28;19908;-67
2021/04/20 13:15:19;;;;;;;;;;;18.30;91.30;;;;;;5094164;28;19908;-74
2021/04/20 13:17:45;;;;;;;;;;;18.20;91.70;;;;;;5096351;28;19919;-73
2021/04/20 13:20:14;;;;;;;;;;;18.00;93.40;;;;;;5095413;28;20356;-74
2021/04/20 13:22:40;;;;;;;;;;;18.00;92.50;;;;;;5095857;28;19916;-75
2021/04/20 13:25:06;;;;;;;;;;;18.10;92.30;;;;;;5096355;28;19915;-74
2021/04/20 13:27:33;;;;;;;;;;;18.30;92.10;;;;;;5095744;28;19908;-74
2021/04/20 13:29:59;;;;;;;;;;;18.30;92.10;;;;;;5094246;28;19908;-73
2021/04/20 13:32:25;;;;;;;;;;;18.20;92.40;;;;;;5095261;28;19999;-73
2021/04/20 13:34:52;;;;;;;;;;;18.10;92.60;;;;;;5095732;28;19951;-77
2021/04/20 13:37:18;;;;;;;;;;;18.10;92.60;;;;;;5095135;28;19912;-72
2021/04/20 13:39:45;;;;;;;;;;;18.10;92.80;;;;;;5089237;28;20006;-73
2021/04/20 13:42:13;;;;;;;;;;;18.20;91.90;;;;;;5096491;28;19908;-72
2021/04/20 13:44:39;;;;;;;;;;;18.30;92.00;;;;;;5094314;28;19908;-73
2021/04/20 13:47:08;;;;;;;;;;;18.30;91.70;;;;;;5096824;28;20003;-72
2021/04/20 13:49:33;;;;;;;;;;;18.40;91.50;;;;;;5096723;28;19990;-73
2021/04/20 13:52:03;;;;;;;;;;;18.50;92.10;;;;;;5095625;28;19943;-73
2021/04/20 13:54:32;;;;;;;;;;;18.60;91.50;;;;;;5095361;28;20356;-73
2021/04/20 13:56:59;;;;;;;;;;;18.70;92.10;;;;;;5092123;28;19942;-72
2021/04/20 13:59:27;;;;;;;;;;;18.90;91.30;;;;;;5095384;28;19915;-73
2021/04/20 14:01:53;;;;;;;;;;;19.20;91.00;;;;;;5094652;28;20407;-72
2021/04/20 14:04:39;;;;;;;;;;;19.60;90.60;;;;;;5094975;28;20010;-72
2021/04/20 14:07:07;;;;;;;;;;;19.80;90.20;;;;;;5093960;28;19991;-72
2021/04/20 14:09:37;;;;;;;;;;;19.70;90.00;;;;;;5095853;28;20367;-74
2021/04/20 14:12:03;;;;;;;;;;;19.80;90.20;;;;;;5095284;28;19908;-74
2021/04/20 14:15:04;;;;;;;;;;;19.70;90.20;;;;;;5093625;28;19915;-72
2021/04/20 14:17:32;;;;;;;;;;;19.70;90.70;;;;;;5015638;28;20181;-72
2021/04/20 14:19:59;;;;;;;;;;;19.70;89.80;;;;;;5084260;28;19951;-72
2021/04/20 14:22:26;;;;;;;;;;;19.50;89.40;;;;;;5092597;28;19965;-74
2021/04/20 14:24:57;;;;;;;;;;;19.30;90.70;;;;;;5092360;28;19935;-74
2021/04/20 14:27:25;;;;;;;;;;;19.20;90.30;;;;;;5090250;28;20305;-73
2021/04/20 14:29:50;;;;;;;;;;;19.10;90.40;;;;;;5095371;28;19912;-73